Atwood, Illinois
Current Conditions -  °F | °C
As of 5:53 AM on Friday 28 Nov 2014 (Local Time) from KCMI Reporting Station
Overcast Overcast  
Wind Chill: 11°   Ceiling: 11000
Heat Index: 20°   Visibility: 10mi
Dew Point: 13°   Wind: 7mph
Humidity: 74%   Direction: 150°SSE
Pressure: 30.33"   Gusts: NA
Location:  39.8°N, 88.46°W
Report Text: KCMI 281153Z 15006KT 10SM SCT070 OVC110 M07/M11 A3033 RMK AO2 SLP284 T10671106 11067 21106 58015 $
Loading
Personal Weather Stations






























Interactive Weather Map New forecast layout! Learn more

10-Day Weather Forecast

Advertisements
Track Severe Weather on mobile